Pinnacle, North Carolina
Current Conditions -  °F | °C
As of 12:15 AM on Saturday 22 Nov 2014 (Local Time) from KMWK Reporting Station
Clear Clear  
Wind Chill: 28°   Ceiling: Unl
Heat Index: 28°   Visibility: 10mi
Dew Point: 15°   Wind: 0mph
Humidity: 56%   Direction: NA
Pressure: 30.53"   Gusts: NA
Location:  36.33°N, 80.43°W
Report Text: KMWK 220515Z AUTO 00000KT 10SM CLR M02/M10 A3053 RMK AO2 T10201097
Loading
Personal Weather Stations






























Interactive Weather Map New forecast layout! Learn more

10-Day Weather Forecast

Advertisements
Track Severe Weather on mobile